createdAt,value
2018-09-05T00:02:08.293Z,34.07
2018-09-05T00:07:01.597Z,34.48
2018-09-05T00:11:55.691Z,37.33
2018-09-05T00:16:49.044Z,32.40
2018-09-05T00:21:42.398Z,35.73
2018-09-05T00:26:35.692Z,32.25
2018-09-05T00:31:29.054Z,37.33
2018-09-05T00:36:22.397Z,36.60
2018-09-05T00:41:15.695Z,35.60
2018-09-05T00:46:08.982Z,34.03
2018-09-05T00:51:02.241Z,33.85
2018-09-05T00:55:55.526Z,32.20
2018-09-05T01:00:49.872Z,33.42
2018-09-05T01:05:43.174Z,33.83
2018-09-05T01:10:36.524Z,34.23
2018-09-05T01:15:30.116Z,32.28
2018-09-05T01:20:23.427Z,34.40
2018-09-05T01:25:16.666Z,32.00
2018-09-05T01:30:09.996Z,30.05
2018-09-05T01:35:03.361Z,32.15
2018-09-05T01:39:56.694Z,30.20
2018-09-05T01:44:50.106Z,33.42
2018-09-05T01:49:43.472Z,32.40
2018-09-05T01:54:36.847Z,34.48
2018-09-05T01:59:30.186Z,33.00
2018-09-05T02:04:23.527Z,37.08
2018-09-05T02:09:16.872Z,31.05
2018-09-05T02:14:10.819Z,35.03
2018-09-05T02:19:04.861Z,35.30
2018-09-05T02:23:58.151Z,33.92
2018-09-05T02:28:51.613Z,30.55
2018-09-05T02:33:44.907Z,35.20
2018-09-05T02:38:38.213Z,35.33
2018-09-05T02:43:37.401Z,33.30
2018-09-05T02:48:30.784Z,33.75
2018-09-05T02:53:24.073Z,38.30
2018-09-05T02:58:17.431Z,34.35
2018-09-05T03:03:10.777Z,35.50
2018-09-05T03:08:04.108Z,33.48
2018-09-05T03:12:57.417Z,31.25
2018-09-05T03:18:20.160Z,28.85
2018-09-05T03:23:13.486Z,31.97
2018-09-05T03:28:07.476Z,32.85
2018-09-05T03:33:01.416Z,27.07
2018-09-05T03:37:54.741Z,31.57
2018-09-05T03:42:48.047Z,30.08
2018-09-05T03:47:41.375Z,30.08
2018-09-05T03:52:34.653Z,30.97
2018-09-05T03:57:28.005Z,31.50
2018-09-05T04:02:21.302Z,30.85
2018-09-05T04:07:14.695Z,29.52
2018-09-05T04:12:08.029Z,29.18
2018-09-05T04:17:01.261Z,31.82
2018-09-05T04:21:54.537Z,26.77
2018-09-05T04:26:47.838Z,27.48
2018-09-05T04:31:41.147Z,27.82
2018-09-05T04:36:34.465Z,27.25
2018-09-05T04:41:27.800Z,24.60
2018-09-05T04:46:21.139Z,23.87
2018-09-05T04:51:14.505Z,23.12
2018-09-05T04:56:07.859Z,25.05
2018-09-05T05:01:01.157Z,23.45
2018-09-05T05:05:54.598Z,22.93
2018-09-05T05:10:47.989Z,23.15
2018-09-05T05:15:41.295Z,23.27
2018-09-05T05:20:35.120Z,22.85
2018-09-05T05:25:28.452Z,22.65
2018-09-05T05:30:21.745Z,27.02
2018-09-05T05:35:15.055Z,25.02
2018-09-05T05:40:08.431Z,22.05
2018-09-05T05:45:02.171Z,23.07
2018-09-05T05:49:55.584Z,24.20
2018-09-05T05:54:49.121Z,22.73
2018-09-05T05:59:42.411Z,25.55
2018-09-05T06:04:35.919Z,22.87
2018-09-05T06:09:29.271Z,23.20
2018-09-05T06:14:22.585Z,24.82
2018-09-05T06:19:16.323Z,22.60
2018-09-05T06:24:09.711Z,23.42
2018-09-05T06:29:03.346Z,24.45
2018-09-05T06:33:56.798Z,24.70
2018-09-05T06:38:50.846Z,26.12
2018-09-05T06:43:44.109Z,25.77
2018-09-05T06:48:37.617Z,26.27
2018-09-05T06:53:31.940Z,29.65
2018-09-05T06:58:25.294Z,26.93
2018-09-05T07:03:19.730Z,28.57
2018-09-05T07:08:13.088Z,29.57
2018-09-05T07:13:06.387Z,31.73
2018-09-05T07:18:00.274Z,31.00
2018-09-05T07:22:53.570Z,32.88
2018-09-05T07:27:47.705Z,32.65
2018-09-05T07:32:41.771Z,34.43
2018-09-05T07:37:35.075Z,35.05
2018-09-05T07:42:28.385Z,37.30
2018-09-05T07:47:21.779Z,33.78
2018-09-05T07:52:15.091Z,36.23
2018-09-05T07:57:08.458Z,36.25
2018-09-05T08:02:01.914Z,34.48
2018-09-05T08:06:55.220Z,36.13
2018-09-05T08:11:48.542Z,37.70
2018-09-05T08:16:41.804Z,38.33
2018-09-05T08:21:35.089Z,33.75
2018-09-05T08:26:28.391Z,38.00
2018-09-05T08:31:21.701Z,40.05
2018-09-05T08:36:15.406Z,36.58
2018-09-05T08:41:09.922Z,43.40
2018-09-05T08:46:03.699Z,41.35
2018-09-05T08:56:40.896Z,40.12
2018-09-05T09:01:37.696Z,38.05
2018-09-05T09:06:31.038Z,36.75
2018-09-05T09:11:24.331Z,37.38
2018-09-05T09:16:18.467Z,39.40
2018-09-05T09:21:11.792Z,34.65
2018-09-05T09:26:05.375Z,33.98
2018-09-05T09:30:58.688Z,34.83
2018-09-05T09:35:52.032Z,31.90
2018-09-05T09:40:46.005Z,31.12
2018-09-05T09:45:39.325Z,32.28
2018-09-05T09:50:32.700Z,31.00
2018-09-05T09:55:26.076Z,32.38
2018-09-05T10:00:24.835Z,32.53
2018-09-05T10:05:23.873Z,28.40
2018-09-05T10:10:23.239Z,33.73
2018-09-05T10:15:21.992Z,32.48
2018-09-05T10:20:15.366Z,31.60
2018-09-05T10:25:08.661Z,27.27
2018-09-05T10:30:01.999Z,31.07
2018-09-05T10:34:56.764Z,30.08
2018-09-05T10:39:51.099Z,31.55
2018-09-05T10:44:44.385Z,28.90
2018-09-05T10:49:38.080Z,28.73
2018-09-05T10:54:31.388Z,33.63
2018-09-05T10:59:24.670Z,28.95
2018-09-05T11:04:18.171Z,30.68
2018-09-05T11:09:12.321Z,29.05
2018-09-05T11:14:06.133Z,29.10
2018-09-05T11:18:59.425Z,25.95
2018-09-05T11:23:52.789Z,26.62
2018-09-05T11:28:46.127Z,26.65
2018-09-05T11:33:39.611Z,27.35
2018-09-05T11:38:32.957Z,25.75
2018-09-05T11:43:26.560Z,19.90
2018-09-05T11:48:19.880Z,20.00
2018-09-05T11:53:13.489Z,25.35
2018-09-05T11:58:06.936Z,18.30
2018-09-05T12:03:00.313Z,18.77
2018-09-05T12:07:54.150Z,17.27
2018-09-05T12:12:47.408Z,18.80
2018-09-05T12:17:40.863Z,15.20
2018-09-05T12:22:34.398Z,16.48
2018-09-05T12:27:27.871Z,16.82
2018-09-05T12:32:22.347Z,16.93
2018-09-05T12:37:17.445Z,24.43
2018-09-05T12:42:11.340Z,15.68
2018-09-05T12:47:04.805Z,17.65
2018-09-05T12:51:58.781Z,21.42
2018-09-05T12:56:52.105Z,18.20
2018-09-05T13:01:45.379Z,14.35
2018-09-05T13:06:39.869Z,15.18
2018-09-05T13:11:33.240Z,14.30
2018-09-05T13:16:26.995Z,14.23
2018-09-05T13:21:20.306Z,17.07
2018-09-05T13:26:13.663Z,15.58
2018-09-05T13:31:07.119Z,16.75
2018-09-05T13:36:00.624Z,15.60
2018-09-05T13:40:54.167Z,15.85
2018-09-05T13:45:47.501Z,15.28
2018-09-05T13:50:40.872Z,15.60
2018-09-05T13:55:34.174Z,14.73
2018-09-05T14:00:27.485Z,14.65
2018-09-05T14:05:20.767Z,18.37
2018-09-05T14:10:15.526Z,15.00
2018-09-05T14:15:09.080Z,14.40
2018-09-05T14:20:04.989Z,14.23
2018-09-05T14:25:01.094Z,14.90
2018-09-05T14:29:54.469Z,17.10
2018-09-05T14:34:47.852Z,13.40
2018-09-05T14:39:41.173Z,14.03
2018-09-05T14:44:34.607Z,14.90
2018-09-05T14:49:27.861Z,13.20
2018-09-05T14:54:21.224Z,15.65
2018-09-05T14:59:14.486Z,15.40
2018-09-05T15:04:07.891Z,12.50
2018-09-05T15:09:01.206Z,14.50
2018-09-05T15:13:54.784Z,12.03
2018-09-05T15:18:48.119Z,12.47
2018-09-05T15:23:41.457Z,13.53
2018-09-05T15:28:34.928Z,12.70
2018-09-05T15:33:28.245Z,11.45
2018-09-05T15:38:21.617Z,13.65
2018-09-05T15:43:14.975Z,11.75
2018-09-05T15:48:08.289Z,12.00
2018-09-05T15:53:01.811Z,11.03
2018-09-05T15:57:55.162Z,12.40
2018-09-05T16:02:48.705Z,11.90
2018-09-05T16:07:42.137Z,11.83
2018-09-05T16:12:35.455Z,13.72
2018-09-05T16:17:28.778Z,12.58
2018-09-05T16:22:22.110Z,14.85
2018-09-05T16:27:16.319Z,11.55
2018-09-05T16:32:09.609Z,11.48
2018-09-05T16:37:02.944Z,13.08
2018-09-05T16:41:58.076Z,11.45
2018-09-05T16:46:51.500Z,11.50
2018-09-05T16:51:44.917Z,14.65
2018-09-05T16:56:38.296Z,11.48
2018-09-05T17:01:31.663Z,11.75
2018-09-05T17:06:25.078Z,13.85
2018-09-05T17:11:18.905Z,11.63
2018-09-05T17:16:12.330Z,11.53
2018-09-05T17:21:05.714Z,12.95
2018-09-05T17:26:00.174Z,11.18
2018-09-05T17:30:53.567Z,11.25
2018-09-05T17:35:46.981Z,13.28
2018-09-05T17:40:40.535Z,11.43
2018-09-05T17:45:33.981Z,12.18
2018-09-05T17:50:28.703Z,10.32
2018-09-05T17:55:22.024Z,10.23
2018-09-05T18:00:15.494Z,10.53
2018-09-05T18:05:08.915Z,13.65
2018-09-05T18:10:02.357Z,11.38
2018-09-05T18:14:55.691Z,9.83
2018-09-05T18:19:49.079Z,10.58
2018-09-05T18:24:42.685Z,11.60
2018-09-05T18:29:36.938Z,13.25
2018-09-05T18:34:30.266Z,15.08
2018-09-05T18:39:24.418Z,19.25
2018-09-05T18:44:17.746Z,17.60
2018-09-05T18:49:11.110Z,15.38
2018-09-05T18:54:04.450Z,18.62
2018-09-05T18:58:58.649Z,16.20
2018-09-05T19:03:51.935Z,18.00
2018-09-05T19:08:45.607Z,21.27
2018-09-05T19:13:39.004Z,23.00
2018-09-05T19:18:33.041Z,20.57
2018-09-05T19:23:26.372Z,18.65
2018-09-05T19:28:19.670Z,24.02
2018-09-05T19:33:13.120Z,23.32
2018-09-05T19:38:06.579Z,22.17
2018-09-05T19:42:59.932Z,22.48
2018-09-05T19:47:53.307Z,20.23
2018-09-05T19:52:46.642Z,19.70
2018-09-05T19:57:39.997Z,26.05
2018-09-05T20:02:33.342Z,26.15
2018-09-05T20:07:26.690Z,24.35
2018-09-05T20:12:20.963Z,26.75
2018-09-05T20:17:15.007Z,23.38
2018-09-05T20:22:10.283Z,22.77
2018-09-05T20:27:03.755Z,23.40
2018-09-05T20:31:57.060Z,25.02
2018-09-05T20:36:51.347Z,24.25
2018-09-05T20:41:45.351Z,25.92
2018-09-05T20:46:39.082Z,23.40
2018-09-05T20:51:32.413Z,21.60
2018-09-05T20:56:25.775Z,22.93
2018-09-05T21:01:19.205Z,23.60
2018-09-05T21:06:12.503Z,26.65
2018-09-05T21:11:05.862Z,24.07
2018-09-05T21:15:59.220Z,29.02
2018-09-05T21:20:52.653Z,32.80
2018-09-05T21:25:45.956Z,32.25
2018-09-05T21:30:39.271Z,32.80
2018-09-05T21:35:32.999Z,27.37
2018-09-05T21:40:26.406Z,32.17
2018-09-05T21:45:19.775Z,30.27
2018-09-05T21:50:13.735Z,28.23
2018-09-05T21:55:07.169Z,29.07
2018-09-05T22:00:00.595Z,29.85
2018-09-05T22:04:54.327Z,31.33
2018-09-05T22:09:47.677Z,27.10
2018-09-05T22:14:41.611Z,35.70
2018-09-05T22:19:34.942Z,32.28
2018-09-05T22:24:28.232Z,34.08
2018-09-05T22:29:21.520Z,31.50
2018-09-05T22:34:14.880Z,29.57
2018-09-05T22:39:10.174Z,29.65
2018-09-05T22:44:20.389Z,25.90
2018-09-05T22:52:37.743Z,28.23
2018-09-05T22:59:47.159Z,31.95
2018-09-05T23:04:59.038Z,37.88
2018-09-05T23:10:09.534Z,34.95
2018-09-05T23:15:19.859Z,35.48
2018-09-05T23:21:25.366Z,35.43
2018-09-05T23:26:19.322Z,35.95
2018-09-05T23:31:12.723Z,36.77
2018-09-05T23:36:06.135Z,39.63
2018-09-05T23:40:59.388Z,38.05
2018-09-05T23:45:52.702Z,34.63
2018-09-05T23:50:46.155Z,36.85
2018-09-05T23:55:39.495Z,36.25
